createdAt,value
2022-12-01T00:04:54.910Z,1.91
2022-12-01T00:10:16.299Z,1.87
2022-12-01T00:15:19.520Z,1.90
2022-12-01T00:20:22.396Z,1.97
2022-12-01T00:25:25.520Z,2.01
2022-12-01T00:30:28.471Z,1.97
2022-12-01T00:35:31.239Z,1.98
2022-12-01T00:40:34.046Z,1.99
2022-12-01T00:45:36.833Z,1.98
2022-12-01T00:50:39.692Z,1.94
2022-12-01T00:55:42.465Z,1.93
2022-12-01T01:00:45.321Z,1.95
2022-12-01T01:05:48.067Z,1.95
2022-12-01T01:10:50.991Z,1.93
2022-12-01T01:16:01.923Z,1.92
2022-12-01T01:21:07.948Z,1.95
2022-12-01T01:26:31.198Z,1.91
2022-12-01T01:31:34.907Z,1.85
2022-12-01T01:36:37.787Z,1.83
2022-12-01T01:41:40.590Z,1.83
2022-12-01T01:46:43.312Z,1.81
2022-12-01T01:51:51.574Z,1.77
2022-12-01T01:56:57.421Z,1.76
2022-12-01T02:02:03.598Z,1.76
2022-12-01T02:07:08.649Z,1.79
2022-12-01T02:12:33.442Z,1.80
2022-12-01T02:17:54.730Z,1.80
2022-12-01T02:23:12.414Z,1.80
2022-12-01T02:28:27.472Z,1.84
2022-12-01T02:33:41.783Z,1.92
2022-12-01T02:39:02.363Z,2.01
2022-12-01T02:44:24.012Z,2.03
2022-12-01T02:49:32.647Z,2.00
2022-12-01T02:54:36.580Z,1.98
2022-12-01T02:59:42.537Z,1.96
2022-12-01T03:05:03.740Z,1.96
2022-12-01T03:10:17.192Z,1.97
2022-12-01T03:15:37.294Z,1.99
2022-12-01T03:21:10.169Z,2.04
2022-12-01T03:26:17.031Z,2.06
2022-12-01T03:31:30.827Z,2.02
2022-12-01T03:36:38.143Z,1.94
2022-12-01T03:41:49.187Z,1.90
2022-12-01T03:46:56.924Z,1.89
2022-12-01T03:52:18.364Z,1.90
2022-12-01T03:57:29.636Z,1.88
2022-12-01T04:02:32.704Z,1.84
2022-12-01T04:07:39.687Z,1.83
2022-12-01T04:12:42.498Z,1.85
2022-12-01T04:17:46.030Z,1.87
2022-12-01T04:22:49.165Z,2.25
2022-12-01T04:27:52.166Z,2.67
2022-12-01T04:32:54.926Z,3.06
2022-12-01T04:37:57.786Z,3.33
2022-12-01T04:43:00.594Z,3.49
2022-12-01T04:48:03.461Z,3.65
2022-12-01T04:53:06.414Z,3.84
2022-12-01T04:58:09.247Z,3.92
2022-12-01T05:03:15.072Z,3.92
2022-12-01T05:08:18.255Z,3.95
2022-12-01T05:13:21.067Z,3.99
2022-12-01T05:18:23.948Z,4.14
2022-12-01T05:23:29.151Z,4.30
2022-12-01T05:28:32.767Z,4.40
2022-12-01T05:33:35.559Z,4.37
2022-12-01T05:38:38.307Z,4.32
2022-12-01T05:43:41.156Z,4.28
2022-12-01T05:48:43.988Z,4.32
2022-12-01T05:53:46.796Z,4.34
2022-12-01T05:58:49.582Z,4.31
2022-12-01T06:03:53.284Z,4.33
2022-12-01T06:08:56.081Z,4.36
2022-12-01T06:13:58.853Z,4.30
2022-12-01T06:19:01.631Z,4.24
2022-12-01T06:24:04.559Z,4.21
2022-12-01T06:29:07.305Z,4.23
2022-12-01T06:34:10.641Z,4.29
2022-12-01T06:39:15.861Z,4.29
2022-12-01T06:44:18.836Z,4.39
2022-12-01T06:49:21.664Z,4.37
2022-12-01T06:54:24.547Z,4.34
2022-12-01T06:59:27.543Z,4.27
2022-12-01T07:04:31.077Z,4.16
2022-12-01T07:09:34.192Z,4.12
2022-12-01T07:14:37.890Z,4.08
2022-12-01T07:19:40.805Z,4.09
2022-12-01T07:24:43.647Z,3.94
2022-12-01T07:29:47.288Z,3.65
2022-12-01T07:34:50.199Z,3.41
2022-12-01T07:39:53.038Z,3.16
2022-12-01T07:44:55.888Z,2.95
2022-12-01T07:49:58.832Z,2.78
2022-12-01T07:55:01.673Z,2.62
2022-12-01T08:00:07.730Z,2.53
2022-12-01T08:05:10.656Z,2.51
2022-12-01T08:10:13.519Z,2.56
2022-12-01T08:15:17.237Z,2.58
2022-12-01T08:20:24.001Z,2.63
2022-12-01T08:25:29.123Z,2.65
2022-12-01T08:30:32.163Z,2.66
2022-12-01T08:35:37.751Z,2.70
2022-12-01T08:40:40.778Z,2.69
2022-12-01T08:45:43.873Z,2.63
2022-12-01T08:50:46.867Z,2.60
2022-12-01T08:55:51.461Z,2.60
2022-12-01T09:01:16.167Z,2.57
2022-12-01T09:06:22.935Z,2.51
2022-12-01T09:11:29.527Z,2.50
2022-12-01T09:16:32.797Z,2.54
2022-12-01T09:21:37.578Z,2.58
2022-12-01T09:26:41.256Z,2.57
2022-12-01T09:31:47.240Z,2.54
2022-12-01T09:36:51.615Z,2.61
2022-12-01T09:41:58.018Z,2.76
2022-12-01T09:47:06.389Z,2.87
2022-12-01T09:52:13.323Z,2.94
2022-12-01T09:57:37.644Z,2.92
2022-12-01T10:02:54.554Z,2.96
2022-12-01T10:08:06.630Z,2.94
2022-12-01T10:13:25.845Z,2.93
2022-12-01T10:19:07.294Z,2.99
2022-12-01T10:24:35.270Z,3.03
2022-12-01T10:29:54.796Z,2.97
2022-12-01T10:34:57.881Z,2.97
2022-12-01T10:40:00.970Z,3.01
2022-12-01T10:45:10.772Z,3.03
2022-12-01T10:50:31.236Z,3.01
2022-12-01T10:55:42.075Z,3.06
2022-12-01T11:01:01.247Z,3.12
2022-12-01T11:06:06.856Z,3.20
2022-12-01T11:11:22.532Z,3.22
2022-12-01T11:16:56.309Z,3.15
2022-12-01T11:22:19.132Z,3.12
2022-12-01T11:27:55.745Z,3.03
2022-12-01T11:33:01.726Z,3.09
2022-12-01T11:43:38.293Z,3.11
2022-12-01T11:48:57.968Z,3.10
2022-12-01T11:54:15.467Z,3.10
2022-12-01T11:59:23.230Z,3.10
2022-12-01T12:04:35.699Z,3.06
2022-12-01T12:10:13.191Z,3.05
2022-12-01T12:15:28.029Z,3.00
2022-12-01T12:20:41.113Z,2.90
2022-12-01T12:25:55.896Z,2.73
2022-12-01T12:31:09.216Z,2.59
2022-12-01T12:36:18.614Z,2.54
2022-12-01T12:41:44.404Z,2.58
2022-12-01T12:47:00.930Z,2.64
2022-12-01T12:52:10.036Z,2.71
2022-12-01T12:57:49.397Z,2.71
2022-12-01T13:03:29.224Z,2.70
2022-12-01T13:08:56.150Z,2.73
2022-12-01T13:14:07.977Z,2.77
2022-12-01T13:19:25.246Z,2.74
2022-12-01T13:24:29.940Z,2.70
2022-12-01T13:29:46.130Z,2.70
2022-12-01T13:34:49.229Z,2.66
2022-12-01T13:39:55.309Z,2.65
2022-12-01T13:45:01.962Z,2.67
2022-12-01T13:50:35.984Z,2.62
2022-12-01T13:56:00.676Z,2.54
2022-12-01T14:01:22.505Z,2.51
2022-12-01T14:06:28.534Z,2.42
2022-12-01T14:11:34.620Z,2.40
2022-12-01T14:16:58.997Z,2.42
2022-12-01T14:22:02.773Z,2.42
2022-12-01T14:27:06.897Z,2.45
2022-12-01T14:32:09.904Z,2.45
2022-12-01T14:37:17.056Z,2.43
2022-12-01T14:42:50.811Z,2.42
2022-12-01T14:48:05.751Z,2.40
2022-12-01T14:53:18.778Z,2.38
2022-12-01T14:58:26.083Z,2.37
2022-12-01T15:03:34.831Z,2.38
2022-12-01T15:08:43.558Z,2.39
2022-12-01T15:13:52.651Z,2.39
2022-12-01T15:18:55.658Z,2.36
2022-12-01T15:24:07.987Z,2.35
2022-12-01T15:29:31.433Z,2.35
2022-12-01T15:34:44.223Z,2.33
2022-12-01T15:39:51.230Z,2.27
2022-12-01T15:45:15.799Z,2.21
2022-12-01T15:50:37.691Z,2.13
2022-12-01T15:55:47.856Z,2.10
2022-12-01T16:01:12.560Z,2.10
2022-12-01T16:06:16.439Z,2.07
2022-12-01T16:11:21.745Z,1.99
2022-12-01T16:16:44.912Z,1.97
2022-12-01T16:21:51.924Z,1.93
2022-12-01T16:27:05.967Z,1.90
2022-12-01T16:32:20.768Z,1.87
2022-12-01T16:37:24.678Z,1.84
2022-12-01T16:42:27.566Z,1.81
2022-12-01T16:47:32.001Z,1.74
2022-12-01T16:52:50.044Z,1.72
2022-12-01T16:57:53.056Z,1.67
2022-12-01T17:02:57.336Z,1.56
2022-12-01T17:08:00.424Z,1.48
2022-12-01T17:13:03.291Z,1.49
2022-12-01T17:18:06.053Z,1.47
2022-12-01T17:23:09.378Z,1.47
2022-12-01T17:28:12.363Z,1.47
2022-12-01T17:33:15.684Z,1.47
2022-12-01T17:38:18.506Z,1.48
2022-12-01T17:43:21.481Z,1.47
2022-12-01T17:48:24.510Z,1.45
2022-12-01T17:53:27.594Z,1.44
2022-12-01T17:58:30.503Z,1.46
2022-12-01T18:03:33.298Z,1.45
2022-12-01T18:08:36.874Z,1.45
2022-12-01T18:13:42.100Z,1.46
2022-12-01T18:18:45.585Z,1.51
2022-12-01T18:24:00.732Z,1.51
2022-12-01T18:29:28.751Z,1.50
2022-12-01T18:34:32.203Z,1.51
2022-12-01T18:39:37.983Z,1.51
2022-12-01T18:44:42.405Z,1.52
2022-12-01T18:49:45.131Z,1.52
2022-12-01T18:54:48.204Z,1.49
2022-12-01T18:59:52.453Z,1.41
2022-12-01T19:04:55.330Z,1.38
2022-12-01T19:09:58.133Z,1.34
2022-12-01T19:15:00.926Z,1.30
2022-12-01T19:20:06.488Z,1.26
2022-12-01T19:25:11.596Z,1.25
2022-12-01T19:30:16.043Z,1.21
2022-12-01T19:35:19.191Z,1.15
2022-12-01T19:40:22.218Z,1.07
2022-12-01T19:45:28.851Z,1.01
2022-12-01T19:50:35.700Z,0.93
2022-12-01T19:55:39.145Z,0.88
2022-12-01T20:00:44.137Z,0.82
2022-12-01T20:05:47.859Z,0.83
2022-12-01T20:10:51.712Z,0.83
2022-12-01T20:15:54.455Z,0.81
2022-12-01T20:21:03.555Z,0.77
2022-12-01T20:26:07.664Z,0.74
2022-12-01T20:31:16.738Z,0.74
2022-12-01T20:36:20.681Z,0.69
2022-12-01T20:41:23.439Z,0.68
2022-12-01T20:46:26.296Z,0.66
2022-12-01T20:51:33.139Z,0.67
2022-12-01T20:56:36.025Z,0.67
2022-12-01T21:01:38.908Z,0.65
2022-12-01T21:06:42.300Z,0.64
2022-12-01T21:12:08.510Z,0.61
2022-12-01T21:17:25.884Z,0.61
2022-12-01T21:22:28.572Z,0.66
2022-12-01T21:27:31.453Z,0.67
2022-12-01T21:32:35.689Z,0.66
2022-12-01T21:37:40.583Z,0.62
2022-12-01T21:42:43.474Z,0.57
2022-12-01T21:47:46.263Z,0.51
2022-12-01T21:52:50.108Z,0.48
2022-12-01T21:57:53.865Z,0.49
2022-12-01T22:03:08.787Z,0.48
2022-12-01T22:08:14.577Z,0.45
2022-12-01T22:13:18.745Z,0.42
2022-12-01T22:18:32.422Z,0.35
2022-12-01T22:23:35.467Z,0.29
2022-12-01T22:28:38.244Z,0.26
2022-12-01T22:33:41.567Z,0.30
2022-12-01T22:38:44.500Z,0.30
2022-12-01T22:43:54.948Z,0.24
2022-12-01T22:48:59.428Z,0.15
2022-12-01T22:54:14.428Z,0.12
2022-12-01T22:59:43.371Z,0.11
2022-12-01T23:04:46.312Z,0.04
2022-12-01T23:09:49.100Z,-0.00
2022-12-01T23:14:56.639Z,-0.01
2022-12-01T23:20:24.679Z,0.01
2022-12-01T23:25:28.549Z,-0.02
2022-12-01T23:30:31.898Z,-0.06
2022-12-01T23:36:06.756Z,-0.12
2022-12-01T23:41:32.823Z,-0.17
2022-12-01T23:46:36.687Z,-0.26
2022-12-01T23:51:53.163Z,-0.29
2022-12-01T23:57:00.653Z,-0.31
